sensor_id;sensor_type;location;lat;lon;timestamp;P1;durP1;ratioP1;P2;durP2;ratioP2
10677;SDS011;5387;48.722;9.110;2023-12-14T00:01:56;4.90;;;1.90;;
10677;SDS011;5387;48.722;9.110;2023-12-14T00:04:22;2.63;;;2.00;;
10677;SDS011;5387;48.722;9.110;2023-12-14T00:06:50;2.30;;;2.10;;
10677;SDS011;5387;48.722;9.110;2023-12-14T00:09:17;2.73;;;1.97;;
10677;SDS011;5387;48.722;9.110;2023-12-14T00:11:44;6.00;;;1.67;;
10677;SDS011;5387;48.722;9.110;2023-12-14T00:14:11;2.00;;;1.60;;
10677;SDS011;5387;48.722;9.110;2023-12-14T00:16:37;2.40;;;1.87;;
10677;SDS011;5387;48.722;9.110;2023-12-14T00:19:04;1.50;;;1.43;;
10677;SDS011;5387;48.722;9.110;2023-12-14T00:21:31;1.90;;;1.80;;
10677;SDS011;5387;48.722;9.110;2023-12-14T00:23:59;3.13;;;1.80;;
10677;SDS011;5387;48.722;9.110;2023-12-14T00:26:26;2.10;;;2.00;;
10677;SDS011;5387;48.722;9.110;2023-12-14T00:28:53;2.33;;;2.13;;
10677;SDS011;5387;48.722;9.110;2023-12-14T00:31:20;1.97;;;1.83;;
10677;SDS011;5387;48.722;9.110;2023-12-14T00:33:48;1.97;;;1.70;;
10677;SDS011;5387;48.722;9.110;2023-12-14T00:36:18;3.37;;;1.90;;
10677;SDS011;5387;48.722;9.110;2023-12-14T00:38:45;2.20;;;1.80;;
10677;SDS011;5387;48.722;9.110;2023-12-14T00:41:13;1.83;;;1.73;;
10677;SDS011;5387;48.722;9.110;2023-12-14T00:43:40;1.77;;;1.60;;
10677;SDS011;5387;48.722;9.110;2023-12-14T00:46:07;2.40;;;1.67;;
10677;SDS011;5387;48.722;9.110;2023-12-14T00:48:34;1.80;;;1.70;;
10677;SDS011;5387;48.722;9.110;2023-12-14T00:51:01;2.10;;;1.90;;
10677;SDS011;5387;48.722;9.110;2023-12-14T00:53:27;1.73;;;1.63;;
10677;SDS011;5387;48.722;9.110;2023-12-14T00:55:54;3.33;;;1.80;;
10677;SDS011;5387;48.722;9.110;2023-12-14T00:58:22;1.50;;;1.40;;
10677;SDS011;5387;48.722;9.110;2023-12-14T01:00:49;2.47;;;1.50;;
10677;SDS011;5387;48.722;9.110;2023-12-14T01:03:16;1.70;;;1.60;;
10677;SDS011;5387;48.722;9.110;2023-12-14T01:05:42;2.17;;;1.37;;
10677;SDS011;5387;48.722;9.110;2023-12-14T01:08:09;1.60;;;1.50;;
10677;SDS011;5387;48.722;9.110;2023-12-14T01:10:36;5.77;;;1.60;;
10677;SDS011;5387;48.722;9.110;2023-12-14T01:13:03;1.73;;;1.63;;
10677;SDS011;5387;48.722;9.110;2023-12-14T01:15:31;1.73;;;1.53;;
10677;SDS011;5387;48.722;9.110;2023-12-14T01:17:58;1.30;;;1.20;;
10677;SDS011;5387;48.722;9.110;2023-12-14T01:20:24;2.17;;;1.30;;
10677;SDS011;5387;48.722;9.110;2023-12-14T01:22:52;1.67;;;1.57;;
10677;SDS011;5387;48.722;9.110;2023-12-14T01:25:19;1.50;;;1.40;;
10677;SDS011;5387;48.722;9.110;2023-12-14T01:27:45;1.20;;;1.10;;
10677;SDS011;5387;48.722;9.110;2023-12-14T01:30:12;1.70;;;1.60;;
10677;SDS011;5387;48.722;9.110;2023-12-14T01:32:40;2.43;;;1.40;;
10677;SDS011;5387;48.722;9.110;2023-12-14T01:35:07;1.57;;;1.47;;
10677;SDS011;5387;48.722;9.110;2023-12-14T01:37:34;1.83;;;1.50;;
10677;SDS011;5387;48.722;9.110;2023-12-14T01:40:01;1.57;;;1.40;;
10677;SDS011;5387;48.722;9.110;2023-12-14T01:42:28;1.57;;;1.47;;
10677;SDS011;5387;48.722;9.110;2023-12-14T01:44:55;4.37;;;1.53;;
10677;SDS011;5387;48.722;9.110;2023-12-14T01:47:22;2.03;;;1.53;;
10677;SDS011;5387;48.722;9.110;2023-12-14T01:49:50;1.60;;;1.50;;
10677;SDS011;5387;48.722;9.110;2023-12-14T01:52:17;1.53;;;1.23;;
10677;SDS011;5387;48.722;9.110;2023-12-14T01:54:43;3.93;;;1.27;;
10677;SDS011;5387;48.722;9.110;2023-12-14T01:57:10;3.03;;;1.40;;
10677;SDS011;5387;48.722;9.110;2023-12-14T01:59:37;2.93;;;1.40;;
10677;SDS011;5387;48.722;9.110;2023-12-14T02:02:04;2.83;;;1.33;;
10677;SDS011;5387;48.722;9.110;2023-12-14T02:04:31;1.23;;;1.07;;
10677;SDS011;5387;48.722;9.110;2023-12-14T02:06:59;1.37;;;1.27;;
10677;SDS011;5387;48.722;9.110;2023-12-14T02:09:26;1.70;;;1.30;;
10677;SDS011;5387;48.722;9.110;2023-12-14T02:11:52;1.00;;;0.97;;
10677;SDS011;5387;48.722;9.110;2023-12-14T02:14:21;1.40;;;1.10;;
10677;SDS011;5387;48.722;9.110;2023-12-14T02:16:48;0.93;;;0.93;;
10677;SDS011;5387;48.722;9.110;2023-12-14T02:19:14;1.57;;;1.03;;
10677;SDS011;5387;48.722;9.110;2023-12-14T02:21:41;1.80;;;1.00;;
10677;SDS011;5387;48.722;9.110;2023-12-14T02:24:09;1.23;;;0.90;;
10677;SDS011;5387;48.722;9.110;2023-12-14T02:26:36;4.10;;;1.27;;
10677;SDS011;5387;48.722;9.110;2023-12-14T02:29:03;2.90;;;1.20;;
10677;SDS011;5387;48.722;9.110;2023-12-14T02:31:30;2.60;;;1.30;;
10677;SDS011;5387;48.722;9.110;2023-12-14T02:33:56;1.43;;;1.33;;
10677;SDS011;5387;48.722;9.110;2023-12-14T02:36:23;2.57;;;1.30;;
10677;SDS011;5387;48.722;9.110;2023-12-14T02:38:50;3.03;;;1.43;;
10677;SDS011;5387;48.722;9.110;2023-12-14T02:41:18;1.60;;;1.50;;
10677;SDS011;5387;48.722;9.110;2023-12-14T02:43:45;6.27;;;2.33;;
10677;SDS011;5387;48.722;9.110;2023-12-14T02:46:11;3.53;;;2.60;;
10677;SDS011;5387;48.722;9.110;2023-12-14T02:48:40;5.90;;;2.30;;
10677;SDS011;5387;48.722;9.110;2023-12-14T02:51:11;1.93;;;1.73;;
10677;SDS011;5387;48.722;9.110;2023-12-14T02:53:39;2.63;;;2.10;;
10677;SDS011;5387;48.722;9.110;2023-12-14T02:56:07;3.97;;;2.37;;
10677;SDS011;5387;48.722;9.110;2023-12-14T02:58:36;5.40;;;2.47;;
10677;SDS011;5387;48.722;9.110;2023-12-14T03:01:03;3.60;;;2.37;;
10677;SDS011;5387;48.722;9.110;2023-12-14T03:03:30;2.87;;;2.33;;
10677;SDS011;5387;48.722;9.110;2023-12-14T03:05:57;2.20;;;2.00;;
10677;SDS011;5387;48.722;9.110;2023-12-14T03:08:24;2.70;;;2.00;;
10677;SDS011;5387;48.722;9.110;2023-12-14T03:10:50;4.63;;;2.20;;
10677;SDS011;5387;48.722;9.110;2023-12-14T03:13:17;3.37;;;1.70;;
10677;SDS011;5387;48.722;9.110;2023-12-14T03:15:45;2.63;;;2.00;;
10677;SDS011;5387;48.722;9.110;2023-12-14T03:18:14;6.40;;;2.33;;
10677;SDS011;5387;48.722;9.110;2023-12-14T03:20:40;7.10;;;1.90;;
10677;SDS011;5387;48.722;9.110;2023-12-14T03:23:07;2.10;;;1.90;;
10677;SDS011;5387;48.722;9.110;2023-12-14T03:25:34;2.83;;;2.00;;
10677;SDS011;5387;48.722;9.110;2023-12-14T03:28:01;2.23;;;2.10;;
10677;SDS011;5387;48.722;9.110;2023-12-14T03:30:27;5.60;;;2.43;;
10677;SDS011;5387;48.722;9.110;2023-12-14T03:32:56;2.97;;;2.30;;
10677;SDS011;5387;48.722;9.110;2023-12-14T03:35:22;3.47;;;2.20;;
10677;SDS011;5387;48.722;9.110;2023-12-14T03:37:49;9.23;;;2.63;;
10677;SDS011;5387;48.722;9.110;2023-12-14T03:40:16;4.67;;;2.47;;
10677;SDS011;5387;48.722;9.110;2023-12-14T03:42:43;3.77;;;2.60;;
10677;SDS011;5387;48.722;9.110;2023-12-14T03:45:10;5.60;;;2.33;;
10677;SDS011;5387;48.722;9.110;2023-12-14T03:47:37;2.73;;;2.53;;
10677;SDS011;5387;48.722;9.110;2023-12-14T03:50:06;4.00;;;2.37;;
10677;SDS011;5387;48.722;9.110;2023-12-14T03:52:34;3.83;;;2.53;;
10677;SDS011;5387;48.722;9.110;2023-12-14T03:55:01;3.23;;;2.53;;
10677;SDS011;5387;48.722;9.110;2023-12-14T03:57:28;4.43;;;2.63;;
10677;SDS011;5387;48.722;9.110;2023-12-14T03:59:54;3.13;;;2.23;;
10677;SDS011;5387;48.722;9.110;2023-12-14T04:02:22;7.43;;;3.53;;
10677;SDS011;5387;48.722;9.110;2023-12-14T04:04:48;3.73;;;2.73;;
10677;SDS011;5387;48.722;9.110;2023-12-14T04:07:16;8.40;;;3.03;;
10677;SDS011;5387;48.722;9.110;2023-12-14T04:09:44;3.90;;;2.80;;
10677;SDS011;5387;48.722;9.110;2023-12-14T04:12:10;4.47;;;2.87;;
10677;SDS011;5387;48.722;9.110;2023-12-14T04:14:37;3.20;;;2.90;;
10677;SDS011;5387;48.722;9.110;2023-12-14T04:17:04;7.87;;;3.20;;
10677;SDS011;5387;48.722;9.110;2023-12-14T04:19:31;6.43;;;2.83;;
10677;SDS011;5387;48.722;9.110;2023-12-14T04:21:57;3.00;;;2.70;;
10677;SDS011;5387;48.722;9.110;2023-12-14T04:24:26;4.03;;;2.67;;
10677;SDS011;5387;48.722;9.110;2023-12-14T04:26:52;4.07;;;2.77;;
10677;SDS011;5387;48.722;9.110;2023-12-14T04:29:19;2.90;;;2.60;;
10677;SDS011;5387;48.722;9.110;2023-12-14T04:31:46;3.73;;;3.27;;
10677;SDS011;5387;48.722;9.110;2023-12-14T04:34:13;5.00;;;3.00;;
10677;SDS011;5387;48.722;9.110;2023-12-14T04:36:40;3.30;;;3.00;;
10677;SDS011;5387;48.722;9.110;2023-12-14T04:39:07;3.70;;;3.33;;
10677;SDS011;5387;48.722;9.110;2023-12-14T04:41:35;4.13;;;3.60;;
10677;SDS011;5387;48.722;9.110;2023-12-14T04:44:02;7.53;;;4.37;;
10677;SDS011;5387;48.722;9.110;2023-12-14T04:46:29;4.67;;;3.90;;
10677;SDS011;5387;48.722;9.110;2023-12-14T04:48:56;8.43;;;4.07;;
10677;SDS011;5387;48.722;9.110;2023-12-14T04:51:23;4.87;;;4.10;;
10677;SDS011;5387;48.722;9.110;2023-12-14T04:53:49;4.17;;;3.50;;
10677;SDS011;5387;48.722;9.110;2023-12-14T04:56:16;7.70;;;4.47;;
10677;SDS011;5387;48.722;9.110;2023-12-14T04:58:44;4.87;;;3.77;;
10677;SDS011;5387;48.722;9.110;2023-12-14T05:01:12;6.73;;;4.53;;
10677;SDS011;5387;48.722;9.110;2023-12-14T05:03:39;7.90;;;4.63;;
10677;SDS011;5387;48.722;9.110;2023-12-14T05:06:06;6.33;;;4.10;;
10677;SDS011;5387;48.722;9.110;2023-12-14T05:08:33;7.03;;;3.87;;
10677;SDS011;5387;48.722;9.110;2023-12-14T05:11:00;6.20;;;4.03;;
10677;SDS011;5387;48.722;9.110;2023-12-14T05:13:28;5.00;;;3.73;;
10677;SDS011;5387;48.722;9.110;2023-12-14T05:15:56;6.30;;;4.07;;
10677;SDS011;5387;48.722;9.110;2023-12-14T05:18:23;7.20;;;4.53;;
10677;SDS011;5387;48.722;9.110;2023-12-14T05:20:50;8.53;;;3.93;;
10677;SDS011;5387;48.722;9.110;2023-12-14T05:23:17;5.40;;;4.63;;
10677;SDS011;5387;48.722;9.110;2023-12-14T05:25:43;7.40;;;4.50;;
10677;SDS011;5387;48.722;9.110;2023-12-14T05:28:10;5.37;;;4.20;;
10677;SDS011;5387;48.722;9.110;2023-12-14T05:30:37;7.10;;;5.37;;
10677;SDS011;5387;48.722;9.110;2023-12-14T05:33:05;8.03;;;5.07;;
10677;SDS011;5387;48.722;9.110;2023-12-14T05:35:32;5.50;;;4.90;;
10677;SDS011;5387;48.722;9.110;2023-12-14T05:37:59;7.03;;;5.23;;
10677;SDS011;5387;48.722;9.110;2023-12-14T05:40:26;6.70;;;5.47;;
10677;SDS011;5387;48.722;9.110;2023-12-14T05:42:53;9.47;;;5.70;;
10677;SDS011;5387;48.722;9.110;2023-12-14T05:45:20;9.80;;;5.47;;
10677;SDS011;5387;48.722;9.110;2023-12-14T05:47:46;6.70;;;5.40;;
10677;SDS011;5387;48.722;9.110;2023-12-14T05:50:15;8.67;;;6.13;;
10677;SDS011;5387;48.722;9.110;2023-12-14T05:52:41;7.13;;;5.37;;
10677;SDS011;5387;48.722;9.110;2023-12-14T05:55:10;8.07;;;5.97;;
10677;SDS011;5387;48.722;9.110;2023-12-14T05:57:37;5.90;;;5.03;;
10677;SDS011;5387;48.722;9.110;2023-12-14T06:00:05;7.77;;;5.83;;
10677;SDS011;5387;48.722;9.110;2023-12-14T06:02:33;9.63;;;5.60;;
10677;SDS011;5387;48.722;9.110;2023-12-14T06:05:02;7.50;;;5.77;;
10677;SDS011;5387;48.722;9.110;2023-12-14T06:07:30;7.23;;;5.27;;
10677;SDS011;5387;48.722;9.110;2023-12-14T06:09:57;7.67;;;5.60;;
10677;SDS011;5387;48.722;9.110;2023-12-14T06:12:24;9.47;;;5.43;;
10677;SDS011;5387;48.722;9.110;2023-12-14T06:14:50;10.60;;;6.17;;
10677;SDS011;5387;48.722;9.110;2023-12-14T06:17:17;10.00;;;6.10;;
10677;SDS011;5387;48.722;9.110;2023-12-14T06:19:44;13.87;;;6.97;;
10677;SDS011;5387;48.722;9.110;2023-12-14T06:22:11;10.70;;;6.60;;
10677;SDS011;5387;48.722;9.110;2023-12-14T06:24:39;7.13;;;5.50;;
10677;SDS011;5387;48.722;9.110;2023-12-14T06:27:06;7.47;;;5.60;;
10677;SDS011;5387;48.722;9.110;2023-12-14T06:29:33;6.63;;;4.83;;
10677;SDS011;5387;48.722;9.110;2023-12-14T06:31:59;5.83;;;4.67;;
10677;SDS011;5387;48.722;9.110;2023-12-14T06:34:26;10.50;;;5.67;;
10677;SDS011;5387;48.722;9.110;2023-12-14T06:36:53;6.20;;;4.37;;
10677;SDS011;5387;48.722;9.110;2023-12-14T06:39:20;8.70;;;5.70;;
10677;SDS011;5387;48.722;9.110;2023-12-14T06:41:51;10.23;;;5.23;;
10677;SDS011;5387;48.722;9.110;2023-12-14T06:44:18;7.07;;;5.40;;
10677;SDS011;5387;48.722;9.110;2023-12-14T06:46:45;8.90;;;5.30;;
10677;SDS011;5387;48.722;9.110;2023-12-14T06:49:11;9.80;;;5.40;;
10677;SDS011;5387;48.722;9.110;2023-12-14T06:51:38;6.50;;;5.13;;
10677;SDS011;5387;48.722;9.110;2023-12-14T06:54:05;6.77;;;4.77;;
10677;SDS011;5387;48.722;9.110;2023-12-14T06:56:32;6.53;;;5.10;;
10677;SDS011;5387;48.722;9.110;2023-12-14T06:59:00;8.50;;;4.87;;
10677;SDS011;5387;48.722;9.110;2023-12-14T07:01:26;6.37;;;4.80;;
10677;SDS011;5387;48.722;9.110;2023-12-14T07:03:53;7.80;;;5.00;;
10677;SDS011;5387;48.722;9.110;2023-12-14T07:06:20;7.50;;;4.37;;
10677;SDS011;5387;48.722;9.110;2023-12-14T07:08:47;6.30;;;4.13;;
10677;SDS011;5387;48.722;9.110;2023-12-14T07:11:14;5.73;;;3.40;;
10677;SDS011;5387;48.722;9.110;2023-12-14T07:13:40;5.07;;;2.87;;
10677;SDS011;5387;48.722;9.110;2023-12-14T07:16:09;3.93;;;2.43;;
10677;SDS011;5387;48.722;9.110;2023-12-14T07:18:37;5.90;;;3.10;;
10677;SDS011;5387;48.722;9.110;2023-12-14T07:21:05;3.13;;;2.63;;
10677;SDS011;5387;48.722;9.110;2023-12-14T07:23:32;3.73;;;2.33;;
10677;SDS011;5387;48.722;9.110;2023-12-14T07:26:00;13.27;;;4.03;;
10677;SDS011;5387;48.722;9.110;2023-12-14T07:28:26;12.00;;;3.43;;
10677;SDS011;5387;48.722;9.110;2023-12-14T07:30:53;32.43;;;4.67;;
10677;SDS011;5387;48.722;9.110;2023-12-14T07:33:22;3.60;;;2.90;;
10677;SDS011;5387;48.722;9.110;2023-12-14T07:35:49;6.03;;;2.70;;
10677;SDS011;5387;48.722;9.110;2023-12-14T07:38:15;3.73;;;2.80;;
10677;SDS011;5387;48.722;9.110;2023-12-14T07:40:42;3.80;;;3.07;;
10677;SDS011;5387;48.722;9.110;2023-12-14T07:43:10;4.43;;;2.40;;
10677;SDS011;5387;48.722;9.110;2023-12-14T07:45:37;3.17;;;2.87;;
10677;SDS011;5387;48.722;9.110;2023-12-14T07:48:03;3.70;;;3.10;;
10677;SDS011;5387;48.722;9.110;2023-12-14T07:50:31;3.47;;;2.47;;
10677;SDS011;5387;48.722;9.110;2023-12-14T07:52:58;6.47;;;2.67;;
10677;SDS011;5387;48.722;9.110;2023-12-14T07:55:25;7.30;;;2.73;;
10677;SDS011;5387;48.722;9.110;2023-12-14T07:57:52;5.43;;;2.53;;
10677;SDS011;5387;48.722;9.110;2023-12-14T08:00:19;2.47;;;2.20;;
10677;SDS011;5387;48.722;9.110;2023-12-14T08:02:46;4.07;;;2.63;;
10677;SDS011;5387;48.722;9.110;2023-12-14T08:05:13;2.77;;;2.57;;
10677;SDS011;5387;48.722;9.110;2023-12-14T08:07:41;3.60;;;3.17;;
10677;SDS011;5387;48.722;9.110;2023-12-14T08:10:08;5.63;;;3.23;;
10677;SDS011;5387;48.722;9.110;2023-12-14T08:12:35;3.23;;;2.93;;
10677;SDS011;5387;48.722;9.110;2023-12-14T08:15:02;3.33;;;3.00;;
10677;SDS011;5387;48.722;9.110;2023-12-14T08:17:29;3.47;;;3.00;;
10677;SDS011;5387;48.722;9.110;2023-12-14T08:19:56;12.07;;;6.17;;
10677;SDS011;5387;48.722;9.110;2023-12-14T08:22:23;4.87;;;3.07;;
10677;SDS011;5387;48.722;9.110;2023-12-14T08:24:51;4.50;;;3.23;;
10677;SDS011;5387;48.722;9.110;2023-12-14T08:27:18;4.63;;;3.43;;
10677;SDS011;5387;48.722;9.110;2023-12-14T08:29:44;3.60;;;2.90;;
10677;SDS011;5387;48.722;9.110;2023-12-14T08:32:11;3.67;;;3.10;;
10677;SDS011;5387;48.722;9.110;2023-12-14T08:34:39;5.77;;;3.53;;
10677;SDS011;5387;48.722;9.110;2023-12-14T08:37:06;4.93;;;3.30;;
10677;SDS011;5387;48.722;9.110;2023-12-14T08:39:33;4.80;;;3.70;;
10677;SDS011;5387;48.722;9.110;2023-12-14T08:42:01;4.70;;;3.47;;
10677;SDS011;5387;48.722;9.110;2023-12-14T08:44:28;4.40;;;4.00;;
10677;SDS011;5387;48.722;9.110;2023-12-14T08:46:55;5.47;;;3.53;;
10677;SDS011;5387;48.722;9.110;2023-12-14T08:49:22;5.27;;;3.87;;
10677;SDS011;5387;48.722;9.110;2023-12-14T08:51:48;7.40;;;4.00;;
10677;SDS011;5387;48.722;9.110;2023-12-14T08:54:15;6.10;;;4.40;;
10677;SDS011;5387;48.722;9.110;2023-12-14T08:56:42;5.17;;;3.60;;
10677;SDS011;5387;48.722;9.110;2023-12-14T08:59:11;3.97;;;3.43;;
10677;SDS011;5387;48.722;9.110;2023-12-14T09:01:38;5.53;;;4.07;;
10677;SDS011;5387;48.722;9.110;2023-12-14T09:04:05;5.00;;;4.17;;
10677;SDS011;5387;48.722;9.110;2023-12-14T09:06:31;6.10;;;5.13;;
10677;SDS011;5387;48.722;9.110;2023-12-14T09:08:58;6.67;;;4.73;;
10677;SDS011;5387;48.722;9.110;2023-12-14T09:11:25;5.60;;;4.07;;
10677;SDS011;5387;48.722;9.110;2023-12-14T09:13:52;8.07;;;4.10;;
10677;SDS011;5387;48.722;9.110;2023-12-14T09:16:20;7.87;;;5.17;;
10677;SDS011;5387;48.722;9.110;2023-12-14T09:18:47;8.07;;;4.97;;
10677;SDS011;5387;48.722;9.110;2023-12-14T09:21:14;6.20;;;5.07;;
10677;SDS011;5387;48.722;9.110;2023-12-14T09:23:40;9.57;;;5.43;;
10677;SDS011;5387;48.722;9.110;2023-12-14T09:26:07;5.13;;;4.40;;
10677;SDS011;5387;48.722;9.110;2023-12-14T09:28:35;7.13;;;4.73;;
10677;SDS011;5387;48.722;9.110;2023-12-14T09:31:02;10.23;;;5.67;;
10677;SDS011;5387;48.722;9.110;2023-12-14T09:33:31;7.63;;;5.53;;
10677;SDS011;5387;48.722;9.110;2023-12-14T09:35:57;7.00;;;5.47;;
10677;SDS011;5387;48.722;9.110;2023-12-14T09:38:24;9.67;;;6.27;;
10677;SDS011;5387;48.722;9.110;2023-12-14T09:40:51;12.10;;;8.53;;
10677;SDS011;5387;48.722;9.110;2023-12-14T09:43:18;9.93;;;7.27;;
10677;SDS011;5387;48.722;9.110;2023-12-14T09:45:46;9.97;;;6.90;;
10677;SDS011;5387;48.722;9.110;2023-12-14T09:48:13;12.60;;;7.07;;
10677;SDS011;5387;48.722;9.110;2023-12-14T09:50:43;11.83;;;6.57;;
10677;SDS011;5387;48.722;9.110;2023-12-14T09:53:11;9.87;;;6.80;;
10677;SDS011;5387;48.722;9.110;2023-12-14T09:55:38;15.67;;;7.60;;
10677;SDS011;5387;48.722;9.110;2023-12-14T09:58:05;12.93;;;7.43;;
10677;SDS011;5387;48.722;9.110;2023-12-14T10:00:35;9.30;;;6.30;;
10677;SDS011;5387;48.722;9.110;2023-12-14T10:03:22;9.03;;;6.13;;
10677;SDS011;5387;48.722;9.110;2023-12-14T10:05:52;9.83;;;6.83;;
10677;SDS011;5387;48.722;9.110;2023-12-14T10:08:20;10.23;;;6.63;;
10677;SDS011;5387;48.722;9.110;2023-12-14T10:10:48;8.80;;;5.70;;
10677;SDS011;5387;48.722;9.110;2023-12-14T10:13:16;6.93;;;5.13;;
10677;SDS011;5387;48.722;9.110;2023-12-14T10:15:43;7.27;;;5.70;;
10677;SDS011;5387;48.722;9.110;2023-12-14T10:18:11;8.63;;;5.73;;
10677;SDS011;5387;48.722;9.110;2023-12-14T10:20:38;8.63;;;4.90;;
10677;SDS011;5387;48.722;9.110;2023-12-14T10:23:07;14.93;;;6.23;;
10677;SDS011;5387;48.722;9.110;2023-12-14T10:25:35;10.60;;;6.03;;
10677;SDS011;5387;48.722;9.110;2023-12-14T10:28:02;6.47;;;4.90;;
10677;SDS011;5387;48.722;9.110;2023-12-14T10:30:29;12.57;;;5.87;;
10677;SDS011;5387;48.722;9.110;2023-12-14T10:32:56;4.87;;;4.23;;
10677;SDS011;5387;48.722;9.110;2023-12-14T10:35:23;6.97;;;4.37;;
10677;SDS011;5387;48.722;9.110;2023-12-14T10:37:50;6.27;;;4.43;;
10677;SDS011;5387;48.722;9.110;2023-12-14T10:40:19;10.37;;;4.73;;
10677;SDS011;5387;48.722;9.110;2023-12-14T10:42:46;7.07;;;4.70;;
10677;SDS011;5387;48.722;9.110;2023-12-14T10:45:15;5.47;;;4.30;;
10677;SDS011;5387;48.722;9.110;2023-12-14T10:47:45;5.73;;;4.10;;
10677;SDS011;5387;48.722;9.110;2023-12-14T10:50:13;5.57;;;4.40;;
10677;SDS011;5387;48.722;9.110;2023-12-14T10:52:40;9.63;;;4.50;;
10677;SDS011;5387;48.722;9.110;2023-12-14T10:55:09;6.10;;;3.80;;
10677;SDS011;5387;48.722;9.110;2023-12-14T10:57:39;4.37;;;3.47;;
10677;SDS011;5387;48.722;9.110;2023-12-14T11:00:06;7.03;;;4.03;;
10677;SDS011;5387;48.722;9.110;2023-12-14T11:02:38;5.73;;;4.40;;
10677;SDS011;5387;48.722;9.110;2023-12-14T11:05:08;5.93;;;4.40;;
10677;SDS011;5387;48.722;9.110;2023-12-14T11:07:47;7.90;;;4.57;;
10677;SDS011;5387;48.722;9.110;2023-12-14T11:10:19;7.30;;;4.47;;
10677;SDS011;5387;48.722;9.110;2023-12-14T11:12:56;7.13;;;5.13;;
10677;SDS011;5387;48.722;9.110;2023-12-14T11:15:27;9.73;;;3.93;;
10677;SDS011;5387;48.722;9.110;2023-12-14T11:20:56;6.40;;;4.13;;
10677;SDS011;5387;48.722;9.110;2023-12-14T11:23:31;9.70;;;4.20;;
10677;SDS011;5387;48.722;9.110;2023-12-14T11:26:00;8.30;;;3.57;;
10677;SDS011;5387;48.722;9.110;2023-12-14T11:28:31;4.47;;;2.73;;
10677;SDS011;5387;48.722;9.110;2023-12-14T11:30:59;5.77;;;2.70;;
10677;SDS011;5387;48.722;9.110;2023-12-14T11:33:27;3.07;;;2.77;;
10677;SDS011;5387;48.722;9.110;2023-12-14T11:35:54;3.17;;;2.57;;
10677;SDS011;5387;48.722;9.110;2023-12-14T11:38:21;2.90;;;2.70;;
10677;SDS011;5387;48.722;9.110;2023-12-14T11:40:50;3.57;;;3.20;;
10677;SDS011;5387;48.722;9.110;2023-12-14T11:43:17;4.73;;;3.20;;
10677;SDS011;5387;48.722;9.110;2023-12-14T11:45:47;5.17;;;2.43;;
10677;SDS011;5387;48.722;9.110;2023-12-14T11:48:14;1.20;;;1.20;;
10677;SDS011;5387;48.722;9.110;2023-12-14T11:50:41;2.97;;;1.77;;
10677;SDS011;5387;48.722;9.110;2023-12-14T11:53:09;7.50;;;1.77;;
10677;SDS011;5387;48.722;9.110;2023-12-14T11:55:37;1.83;;;1.60;;
10677;SDS011;5387;48.722;9.110;2023-12-14T11:58:04;2.30;;;1.63;;
10677;SDS011;5387;48.722;9.110;2023-12-14T12:00:32;2.10;;;1.47;;
10677;SDS011;5387;48.722;9.110;2023-12-14T12:03:10;4.10;;;2.10;;
10677;SDS011;5387;48.722;9.110;2023-12-14T12:05:38;3.00;;;1.70;;
10677;SDS011;5387;48.722;9.110;2023-12-14T12:08:07;4.80;;;2.03;;
10677;SDS011;5387;48.722;9.110;2023-12-14T12:10:35;3.27;;;1.60;;
10677;SDS011;5387;48.722;9.110;2023-12-14T12:13:02;1.60;;;1.50;;
10677;SDS011;5387;48.722;9.110;2023-12-14T12:15:31;2.60;;;1.70;;
10677;SDS011;5387;48.722;9.110;2023-12-14T12:17:58;2.97;;;2.00;;
10677;SDS011;5387;48.722;9.110;2023-12-14T12:20:26;4.47;;;1.50;;
10677;SDS011;5387;48.722;9.110;2023-12-14T12:22:53;2.57;;;1.43;;
10677;SDS011;5387;48.722;9.110;2023-12-14T12:25:20;1.90;;;1.77;;
10677;SDS011;5387;48.722;9.110;2023-12-14T12:27:47;2.43;;;1.90;;
10677;SDS011;5387;48.722;9.110;2023-12-14T12:30:14;1.00;;;1.00;;
10677;SDS011;5387;48.722;9.110;2023-12-14T12:32:41;1.30;;;1.20;;
10677;SDS011;5387;48.722;9.110;2023-12-14T12:35:08;2.27;;;1.63;;
10677;SDS011;5387;48.722;9.110;2023-12-14T12:37:37;3.30;;;1.87;;
10677;SDS011;5387;48.722;9.110;2023-12-14T12:40:05;2.47;;;2.27;;
10677;SDS011;5387;48.722;9.110;2023-12-14T12:42:32;4.20;;;1.93;;
10677;SDS011;5387;48.722;9.110;2023-12-14T12:44:59;1.97;;;1.73;;
10677;SDS011;5387;48.722;9.110;2023-12-14T12:47:26;5.00;;;2.43;;
10677;SDS011;5387;48.722;9.110;2023-12-14T12:49:53;4.17;;;2.40;;
10677;SDS011;5387;48.722;9.110;2023-12-14T12:52:20;2.53;;;1.87;;
10677;SDS011;5387;48.722;9.110;2023-12-14T12:54:48;2.33;;;2.13;;
10677;SDS011;5387;48.722;9.110;2023-12-14T12:57:15;3.27;;;2.30;;
10677;SDS011;5387;48.722;9.110;2023-12-14T12:59:43;4.60;;;2.03;;
10677;SDS011;5387;48.722;9.110;2023-12-14T13:02:10;4.90;;;2.50;;
10677;SDS011;5387;48.722;9.110;2023-12-14T13:04:37;2.80;;;2.40;;
10677;SDS011;5387;48.722;9.110;2023-12-14T13:07:04;3.27;;;2.40;;
10677;SDS011;5387;48.722;9.110;2023-12-14T13:09:31;3.60;;;2.30;;
10677;SDS011;5387;48.722;9.110;2023-12-14T13:11:59;3.93;;;2.27;;
10677;SDS011;5387;48.722;9.110;2023-12-14T13:14:26;3.30;;;1.83;;
10677;SDS011;5387;48.722;9.110;2023-12-14T13:16:52;3.30;;;2.87;;
10677;SDS011;5387;48.722;9.110;2023-12-14T13:19:19;1.10;;;1.10;;
10677;SDS011;5387;48.722;9.110;2023-12-14T13:21:48;3.27;;;2.17;;
10677;SDS011;5387;48.722;9.110;2023-12-14T13:24:14;3.67;;;2.23;;
10677;SDS011;5387;48.722;9.110;2023-12-14T13:26:41;3.50;;;2.40;;
10677;SDS011;5387;48.722;9.110;2023-12-14T13:29:09;2.10;;;1.90;;
10677;SDS011;5387;48.722;9.110;2023-12-14T13:31:36;2.20;;;2.00;;
10677;SDS011;5387;48.722;9.110;2023-12-14T13:34:03;2.87;;;2.27;;
10677;SDS011;5387;48.722;9.110;2023-12-14T13:36:30;3.87;;;2.67;;
10677;SDS011;5387;48.722;9.110;2023-12-14T13:38:57;4.47;;;2.13;;
10677;SDS011;5387;48.722;9.110;2023-12-14T13:41:24;3.17;;;2.50;;
10677;SDS011;5387;48.722;9.110;2023-12-14T13:43:51;4.20;;;2.50;;
10677;SDS011;5387;48.722;9.110;2023-12-14T13:46:19;4.03;;;2.80;;
10677;SDS011;5387;48.722;9.110;2023-12-14T13:48:47;3.70;;;2.67;;
10677;SDS011;5387;48.722;9.110;2023-12-14T13:51:13;3.53;;;2.80;;
10677;SDS011;5387;48.722;9.110;2023-12-14T13:53:40;4.97;;;3.13;;
10677;SDS011;5387;48.722;9.110;2023-12-14T13:56:09;3.23;;;2.80;;
10677;SDS011;5387;48.722;9.110;2023-12-14T13:58:35;3.97;;;2.90;;
10677;SDS011;5387;48.722;9.110;2023-12-14T14:01:03;3.73;;;2.90;;
10677;SDS011;5387;48.722;9.110;2023-12-14T14:03:33;5.50;;;3.70;;
10677;SDS011;5387;48.722;9.110;2023-12-14T14:06:00;5.23;;;3.73;;
10677;SDS011;5387;48.722;9.110;2023-12-14T14:08:27;7.13;;;4.10;;
10677;SDS011;5387;48.722;9.110;2023-12-14T14:10:56;6.87;;;3.83;;
10677;SDS011;5387;48.722;9.110;2023-12-14T14:13:23;11.77;;;4.37;;
10677;SDS011;5387;48.722;9.110;2023-12-14T14:15:50;5.00;;;3.77;;
10677;SDS011;5387;48.722;9.110;2023-12-14T14:18:16;7.27;;;4.73;;
10677;SDS011;5387;48.722;9.110;2023-12-14T14:20:44;8.57;;;5.27;;
10677;SDS011;5387;48.722;9.110;2023-12-14T14:23:11;6.90;;;4.73;;
10677;SDS011;5387;48.722;9.110;2023-12-14T14:25:38;8.23;;;4.77;;
10677;SDS011;5387;48.722;9.110;2023-12-14T14:28:05;10.90;;;5.57;;
10677;SDS011;5387;48.722;9.110;2023-12-14T14:30:33;8.90;;;4.73;;
10677;SDS011;5387;48.722;9.110;2023-12-14T14:32:59;8.80;;;5.20;;
10677;SDS011;5387;48.722;9.110;2023-12-14T14:35:26;6.80;;;4.90;;
10677;SDS011;5387;48.722;9.110;2023-12-14T14:37:55;8.17;;;5.27;;
10677;SDS011;5387;48.722;9.110;2023-12-14T14:40:22;4.80;;;3.67;;
10677;SDS011;5387;48.722;9.110;2023-12-14T14:42:48;6.63;;;3.93;;
10677;SDS011;5387;48.722;9.110;2023-12-14T14:45:15;7.20;;;4.40;;
10677;SDS011;5387;48.722;9.110;2023-12-14T14:47:42;9.63;;;4.17;;
10677;SDS011;5387;48.722;9.110;2023-12-14T14:50:09;10.00;;;4.87;;
10677;SDS011;5387;48.722;9.110;2023-12-14T14:52:36;3.73;;;2.60;;
10677;SDS011;5387;48.722;9.110;2023-12-14T14:55:04;10.00;;;5.37;;
10677;SDS011;5387;48.722;9.110;2023-12-14T14:57:31;6.03;;;3.97;;
10677;SDS011;5387;48.722;9.110;2023-12-14T14:59:58;8.13;;;5.33;;
10677;SDS011;5387;48.722;9.110;2023-12-14T15:02:25;11.10;;;5.47;;
10677;SDS011;5387;48.722;9.110;2023-12-14T15:04:52;12.80;;;6.17;;